sensor_id;sensor_type;location;lat;lon;timestamp;pressure;altitude;pressure_sealevel;temperature;humidity
61488;BME280;47351;53.326;-6.298;2023-05-19T00:00:24;102573.63;;;14.75;75.08
61488;BME280;47351;53.326;-6.298;2023-05-19T00:03:17;102571.12;;;14.77;75.09
61488;BME280;47351;53.326;-6.298;2023-05-19T00:06:09;102572.71;;;14.75;75.09
61488;BME280;47351;53.326;-6.298;2023-05-19T00:09:03;102573.28;;;14.73;75.03
61488;BME280;47351;53.326;-6.298;2023-05-19T00:11:55;102577.65;;;14.71;75.11
61488;BME280;47351;53.326;-6.298;2023-05-19T00:14:48;102581.94;;;14.69;75.27
61488;BME280;47351;53.326;-6.298;2023-05-19T00:17:40;102582.30;;;14.67;75.36
61488;BME280;47351;53.326;-6.298;2023-05-19T00:20:31;102583.17;;;14.63;75.08
61488;BME280;47351;53.326;-6.298;2023-05-19T00:23:22;102584.05;;;14.59;75.14
61488;BME280;47351;53.326;-6.298;2023-05-19T00:26:13;102585.38;;;14.57;75.51
61488;BME280;47351;53.326;-6.298;2023-05-19T00:29:24;102586.30;;;14.56;75.64
61488;BME280;47351;53.326;-6.298;2023-05-19T00:32:17;102588.88;;;14.54;75.60
61488;BME280;47351;53.326;-6.298;2023-05-19T00:35:08;102582.63;;;14.53;75.87
61488;BME280;47351;53.326;-6.298;2023-05-19T00:37:59;102589.02;;;14.56;76.09
61488;BME280;47351;53.326;-6.298;2023-05-19T00:40:50;102596.60;;;14.58;75.95
61488;BME280;47351;53.326;-6.298;2023-05-19T00:43:44;102607.98;;;14.57;75.83
61488;BME280;47351;53.326;-6.298;2023-05-19T00:46:35;102611.55;;;14.57;75.99
61488;BME280;47351;53.326;-6.298;2023-05-19T00:49:26;102606.50;;;14.59;76.14
61488;BME280;47351;53.326;-6.298;2023-05-19T00:52:19;102615.66;;;14.59;76.11
61488;BME280;47351;53.326;-6.298;2023-05-19T00:55:10;102620.59;;;14.57;76.00
61488;BME280;47351;53.326;-6.298;2023-05-19T00:58:05;102620.27;;;14.55;76.31
61488;BME280;47351;53.326;-6.298;2023-05-19T01:01:07;102618.27;;;14.53;76.45
61488;BME280;47351;53.326;-6.298;2023-05-19T01:04:00;102626.50;;;14.51;76.48
61488;BME280;47351;53.326;-6.298;2023-05-19T01:07:01;102636.42;;;14.46;76.41
61488;BME280;47351;53.326;-6.298;2023-05-19T01:09:51;102644.27;;;14.41;76.60
61488;BME280;47351;53.326;-6.298;2023-05-19T01:12:55;102641.55;;;14.35;76.81
61488;BME280;47351;53.326;-6.298;2023-05-19T01:15:54;102646.80;;;14.30;76.81
61488;BME280;47351;53.326;-6.298;2023-05-19T01:18:51;102648.28;;;14.20;76.57
61488;BME280;47351;53.326;-6.298;2023-05-19T01:21:54;102650.37;;;14.10;76.67
61488;BME280;47351;53.326;-6.298;2023-05-19T01:25:22;102650.66;;;14.03;76.27
61488;BME280;47351;53.326;-6.298;2023-05-19T01:31:41;102637.59;;;13.97;75.64
61488;BME280;47351;53.326;-6.298;2023-05-19T01:34:41;102633.81;;;14.01;75.76
61488;BME280;47351;53.326;-6.298;2023-05-19T01:37:32;102627.02;;;14.04;75.54
61488;BME280;47351;53.326;-6.298;2023-05-19T01:40:26;102617.02;;;14.07;75.48
61488;BME280;47351;53.326;-6.298;2023-05-19T01:43:18;102610.73;;;14.09;75.25
61488;BME280;47351;53.326;-6.298;2023-05-19T01:46:14;102615.29;;;14.09;74.65
61488;BME280;47351;53.326;-6.298;2023-05-19T01:49:05;102614.67;;;14.00;73.39
61488;BME280;47351;53.326;-6.298;2023-05-19T01:52:08;102611.88;;;13.90;72.81
61488;BME280;47351;53.326;-6.298;2023-05-19T01:55:10;102618.55;;;13.82;72.25
61488;BME280;47351;53.326;-6.298;2023-05-19T01:58:21;102616.27;;;13.71;71.61
61488;BME280;47351;53.326;-6.298;2023-05-19T02:01:29;102620.74;;;13.62;71.46
61488;BME280;47351;53.326;-6.298;2023-05-19T02:04:33;102622.98;;;13.58;71.42
61488;BME280;47351;53.326;-6.298;2023-05-19T02:07:30;102631.76;;;13.53;71.24
61488;BME280;47351;53.326;-6.298;2023-05-19T02:10:44;102634.59;;;13.52;71.10
61488;BME280;47351;53.326;-6.298;2023-05-19T02:13:52;102632.28;;;13.49;71.10
61488;BME280;47351;53.326;-6.298;2023-05-19T02:17:06;102632.84;;;13.47;71.23
61488;BME280;47351;53.326;-6.298;2023-05-19T02:20:18;102636.54;;;13.45;71.35
61488;BME280;47351;53.326;-6.298;2023-05-19T02:23:13;102632.45;;;13.45;71.37
61488;BME280;47351;53.326;-6.298;2023-05-19T02:26:24;102635.48;;;13.45;71.53
61488;BME280;47351;53.326;-6.298;2023-05-19T02:29:15;102641.23;;;13.45;71.49
61488;BME280;47351;53.326;-6.298;2023-05-19T02:32:26;102646.34;;;13.44;71.43
61488;BME280;47351;53.326;-6.298;2023-05-19T02:35:37;102646.27;;;13.38;71.19
61488;BME280;47351;53.326;-6.298;2023-05-19T02:38:28;102648.02;;;13.28;70.97
61488;BME280;47351;53.326;-6.298;2023-05-19T02:41:21;102650.56;;;13.17;71.08
61488;BME280;47351;53.326;-6.298;2023-05-19T02:44:23;102643.46;;;13.12;71.53
61488;BME280;47351;53.326;-6.298;2023-05-19T02:47:16;102649.41;;;13.05;71.40
61488;BME280;47351;53.326;-6.298;2023-05-19T02:50:27;102651.32;;;12.97;71.44
61488;BME280;47351;53.326;-6.298;2023-05-19T02:53:33;102656.86;;;12.88;71.45
61488;BME280;47351;53.326;-6.298;2023-05-19T02:56:24;102654.16;;;12.82;71.82
61488;BME280;47351;53.326;-6.298;2023-05-19T02:59:19;102654.89;;;12.76;71.97
61488;BME280;47351;53.326;-6.298;2023-05-19T03:02:21;102660.10;;;12.66;72.29
61488;BME280;47351;53.326;-6.298;2023-05-19T03:05:32;102662.06;;;12.58;72.36
61488;BME280;47351;53.326;-6.298;2023-05-19T03:08:43;102658.54;;;12.55;72.73
61488;BME280;47351;53.326;-6.298;2023-05-19T03:11:48;102656.44;;;12.54;72.86
61488;BME280;47351;53.326;-6.298;2023-05-19T03:14:59;102655.58;;;12.51;72.74
61488;BME280;47351;53.326;-6.298;2023-05-19T03:17:49;102664.27;;;12.46;72.51
61488;BME280;47351;53.326;-6.298;2023-05-19T03:20:55;102663.27;;;12.42;72.70
61488;BME280;47351;53.326;-6.298;2023-05-19T03:24:06;102660.25;;;12.40;72.68
61488;BME280;47351;53.326;-6.298;2023-05-19T03:27:17;102661.48;;;12.40;72.93
61488;BME280;47351;53.326;-6.298;2023-05-19T03:30:11;102662.44;;;12.42;73.11
61488;BME280;47351;53.326;-6.298;2023-05-19T03:33:25;102656.69;;;12.44;72.99
61488;BME280;47351;53.326;-6.298;2023-05-19T03:36:38;102659.09;;;12.45;73.10
61488;BME280;47351;53.326;-6.298;2023-05-19T03:39:33;102659.09;;;12.45;72.95
61488;BME280;47351;53.326;-6.298;2023-05-19T03:42:27;102665.42;;;12.45;72.78
61488;BME280;47351;53.326;-6.298;2023-05-19T03:45:30;102673.84;;;12.44;72.91
61488;BME280;47351;53.326;-6.298;2023-05-19T03:48:41;102673.58;;;12.43;72.75
61488;BME280;47351;53.326;-6.298;2023-05-19T03:52:04;102670.40;;;12.41;72.63
61488;BME280;47351;53.326;-6.298;2023-05-19T03:55:18;102676.91;;;12.33;72.58
61488;BME280;47351;53.326;-6.298;2023-05-19T03:58:29;102677.21;;;12.27;72.62
61488;BME280;47351;53.326;-6.298;2023-05-19T04:01:40;102681.09;;;12.23;72.73
61488;BME280;47351;53.326;-6.298;2023-05-19T04:04:36;102683.88;;;12.20;72.84
61488;BME280;47351;53.326;-6.298;2023-05-19T04:07:31;102682.27;;;12.15;72.81
61488;BME280;47351;53.326;-6.298;2023-05-19T04:10:42;102688.92;;;12.08;72.85
61488;BME280;47351;53.326;-6.298;2023-05-19T04:13:53;102686.00;;;11.99;73.00
61488;BME280;47351;53.326;-6.298;2023-05-19T04:17:04;102684.82;;;11.92;73.19
61488;BME280;47351;53.326;-6.298;2023-05-19T04:20:05;102695.27;;;11.86;73.52
61488;BME280;47351;53.326;-6.298;2023-05-19T04:22:59;102700.66;;;11.80;73.58
61488;BME280;47351;53.326;-6.298;2023-05-19T04:26:01;102700.56;;;11.75;73.72
61488;BME280;47351;53.326;-6.298;2023-05-19T04:29:06;102703.11;;;11.67;73.73
61488;BME280;47351;53.326;-6.298;2023-05-19T04:32:16;102710.98;;;11.63;74.07
61488;BME280;47351;53.326;-6.298;2023-05-19T04:35:21;102713.55;;;11.59;74.16
61488;BME280;47351;53.326;-6.298;2023-05-19T04:38:32;102715.02;;;11.56;74.26
61488;BME280;47351;53.326;-6.298;2023-05-19T04:41:42;102719.56;;;11.53;74.33
61488;BME280;47351;53.326;-6.298;2023-05-19T04:44:44;102728.96;;;11.51;74.56
61488;BME280;47351;53.326;-6.298;2023-05-19T04:47:47;102733.85;;;11.53;74.86
61488;BME280;47351;53.326;-6.298;2023-05-19T04:50:58;102734.00;;;11.53;74.78
61488;BME280;47351;53.326;-6.298;2023-05-19T04:53:56;102735.69;;;11.55;74.96
61488;BME280;47351;53.326;-6.298;2023-05-19T04:57:07;102734.73;;;11.58;75.04
61488;BME280;47351;53.326;-6.298;2023-05-19T05:00:04;102745.24;;;11.64;75.10
61488;BME280;47351;53.326;-6.298;2023-05-19T05:03:07;102747.94;;;11.68;75.03
61488;BME280;47351;53.326;-6.298;2023-05-19T05:06:01;102741.29;;;11.73;75.03
61488;BME280;47351;53.326;-6.298;2023-05-19T05:09:12;102734.09;;;11.78;75.00
61488;BME280;47351;53.326;-6.298;2023-05-19T05:12:15;102737.60;;;11.79;74.80
61488;BME280;47351;53.326;-6.298;2023-05-19T05:15:27;102746.02;;;11.79;74.80
61488;BME280;47351;53.326;-6.298;2023-05-19T05:18:41;102741.33;;;11.80;74.78
61488;BME280;47351;53.326;-6.298;2023-05-19T05:21:37;102737.39;;;11.82;74.78
61488;BME280;47351;53.326;-6.298;2023-05-19T05:24:52;102741.77;;;11.81;74.58
61488;BME280;47351;53.326;-6.298;2023-05-19T05:27:53;102747.12;;;11.79;74.59
61488;BME280;47351;53.326;-6.298;2023-05-19T05:30:57;102746.03;;;11.77;74.67
61488;BME280;47351;53.326;-6.298;2023-05-19T05:34:08;102741.62;;;11.81;74.97
61488;BME280;47351;53.326;-6.298;2023-05-19T05:37:21;102742.89;;;11.83;74.75
61488;BME280;47351;53.326;-6.298;2023-05-19T05:40:23;102742.50;;;11.86;74.85
61488;BME280;47351;53.326;-6.298;2023-05-19T05:43:37;102745.94;;;11.93;74.93
61488;BME280;47351;53.326;-6.298;2023-05-19T05:46:48;102742.58;;;11.99;74.78
61488;BME280;47351;53.326;-6.298;2023-05-19T05:49:59;102744.33;;;12.04;74.49
61488;BME280;47351;53.326;-6.298;2023-05-19T05:53:06;102747.86;;;12.05;74.01
61488;BME280;47351;53.326;-6.298;2023-05-19T05:56:10;102746.57;;;12.08;74.13
61488;BME280;47351;53.326;-6.298;2023-05-19T05:59:08;102742.94;;;12.16;74.28
61488;BME280;47351;53.326;-6.298;2023-05-19T06:02:05;102740.60;;;12.22;74.13
61488;BME280;47351;53.326;-6.298;2023-05-19T06:04:59;102744.59;;;12.31;74.14
61488;BME280;47351;53.326;-6.298;2023-05-19T06:07:54;102745.33;;;12.37;73.78
61488;BME280;47351;53.326;-6.298;2023-05-19T06:10:56;102739.10;;;12.46;73.70
61488;BME280;47351;53.326;-6.298;2023-05-19T06:14:01;102734.15;;;12.59;73.83
61488;BME280;47351;53.326;-6.298;2023-05-19T06:17:27;102736.01;;;12.74;73.51
61488;BME280;47351;53.326;-6.298;2023-05-19T06:20:20;102734.78;;;12.80;73.08
61488;BME280;47351;53.326;-6.298;2023-05-19T06:23:17;102743.16;;;12.85;72.97
61488;BME280;47351;53.326;-6.298;2023-05-19T06:26:10;102744.34;;;12.93;72.73
61488;BME280;47351;53.326;-6.298;2023-05-19T06:29:05;102749.88;;;12.97;72.44
61488;BME280;47351;53.326;-6.298;2023-05-19T06:32:16;102747.48;;;13.00;72.40
61488;BME280;47351;53.326;-6.298;2023-05-19T06:35:13;102736.23;;;13.09;72.49
61488;BME280;47351;53.326;-6.298;2023-05-19T06:38:06;102731.90;;;13.14;72.15
61488;BME280;47351;53.326;-6.298;2023-05-19T06:41:01;102737.23;;;13.14;71.78
61488;BME280;47351;53.326;-6.298;2023-05-19T06:43:55;102727.69;;;13.13;71.86
61488;BME280;47351;53.326;-6.298;2023-05-19T06:46:51;102723.79;;;13.12;71.87
61488;BME280;47351;53.326;-6.298;2023-05-19T06:49:42;102724.63;;;13.15;71.99
61488;BME280;47351;53.326;-6.298;2023-05-19T06:52:34;102730.90;;;13.19;71.81
61488;BME280;47351;53.326;-6.298;2023-05-19T06:55:28;102734.08;;;13.22;71.79
61488;BME280;47351;53.326;-6.298;2023-05-19T06:58:19;102732.33;;;13.28;71.90
61488;BME280;47351;53.326;-6.298;2023-05-19T07:01:10;102729.75;;;13.36;71.95
61488;BME280;47351;53.326;-6.298;2023-05-19T07:04:05;102741.41;;;13.44;71.81
61488;BME280;47351;53.326;-6.298;2023-05-19T07:06:59;102739.98;;;13.55;71.83
61488;BME280;47351;53.326;-6.298;2023-05-19T07:09:53;102737.28;;;13.63;71.33
61488;BME280;47351;53.326;-6.298;2023-05-19T07:13:03;102749.68;;;13.70;70.88
61488;BME280;47351;53.326;-6.298;2023-05-19T07:15:54;102748.90;;;13.77;70.86
61488;BME280;47351;53.326;-6.298;2023-05-19T07:19:05;102751.09;;;13.89;70.81
61488;BME280;47351;53.326;-6.298;2023-05-19T07:21:58;102753.84;;;14.02;70.52
61488;BME280;47351;53.326;-6.298;2023-05-19T07:25:02;102766.05;;;14.05;69.87
61488;BME280;47351;53.326;-6.298;2023-05-19T07:28:02;102769.55;;;14.09;69.58
61488;BME280;47351;53.326;-6.298;2023-05-19T07:30:53;102775.07;;;14.09;69.36
61488;BME280;47351;53.326;-6.298;2023-05-19T07:33:43;102784.36;;;14.12;69.34
61488;BME280;47351;53.326;-6.298;2023-05-19T07:36:54;102778.55;;;14.10;69.02
61488;BME280;47351;53.326;-6.298;2023-05-19T07:39:50;102781.17;;;14.07;69.02
61488;BME280;47351;53.326;-6.298;2023-05-19T07:42:53;102787.18;;;14.08;69.17
61488;BME280;47351;53.326;-6.298;2023-05-19T07:46:04;102782.05;;;14.12;69.17
61488;BME280;47351;53.326;-6.298;2023-05-19T07:48:58;102777.14;;;14.17;69.07
61488;BME280;47351;53.326;-6.298;2023-05-19T07:51:52;102776.39;;;14.19;68.72
61488;BME280;47351;53.326;-6.298;2023-05-19T07:55:03;102775.02;;;14.22;68.55
61488;BME280;47351;53.326;-6.298;2023-05-19T07:57:57;102772.56;;;14.28;68.42
61488;BME280;47351;53.326;-6.298;2023-05-19T08:00:59;102779.04;;;14.47;68.66
61488;BME280;47351;53.326;-6.298;2023-05-19T08:03:50;102780.31;;;14.63;68.20
61488;BME280;47351;53.326;-6.298;2023-05-19T08:06:53;102778.20;;;14.83;67.86
61488;BME280;47351;53.326;-6.298;2023-05-19T08:09:44;102775.04;;;15.05;67.61
61488;BME280;47351;53.326;-6.298;2023-05-19T08:12:55;102771.39;;;15.29;67.05
61488;BME280;47351;53.326;-6.298;2023-05-19T08:15:45;102774.81;;;15.49;66.13
61488;BME280;47351;53.326;-6.298;2023-05-19T08:18:39;102776.72;;;15.59;65.65
61488;BME280;47351;53.326;-6.298;2023-05-19T08:21:30;102777.33;;;15.73;65.61
61488;BME280;47351;53.326;-6.298;2023-05-19T08:24:42;102781.31;;;15.79;64.84
61488;BME280;47351;53.326;-6.298;2023-05-19T08:27:54;102782.86;;;15.80;64.89
61488;BME280;47351;53.326;-6.298;2023-05-19T08:30:46;102788.73;;;15.78;64.55
61488;BME280;47351;53.326;-6.298;2023-05-19T08:33:57;102792.71;;;15.76;64.47
61488;BME280;47351;53.326;-6.298;2023-05-19T08:37:08;102789.80;;;15.72;64.34
61488;BME280;47351;53.326;-6.298;2023-05-19T08:40:00;102789.58;;;15.69;64.17
61488;BME280;47351;53.326;-6.298;2023-05-19T08:43:04;102786.52;;;15.65;64.32
61488;BME280;47351;53.326;-6.298;2023-05-19T08:45:58;102781.93;;;15.64;64.40
61488;BME280;47351;53.326;-6.298;2023-05-19T08:48:49;102783.55;;;15.68;64.46
61488;BME280;47351;53.326;-6.298;2023-05-19T08:51:45;102788.64;;;15.63;64.09
61488;BME280;47351;53.326;-6.298;2023-05-19T08:54:40;102790.98;;;15.57;64.17
61488;BME280;47351;53.326;-6.298;2023-05-19T08:57:33;102788.95;;;15.48;63.91
61488;BME280;47351;53.326;-6.298;2023-05-19T09:00:27;102787.70;;;15.42;63.82
61488;BME280;47351;53.326;-6.298;2023-05-19T09:03:20;102786.33;;;15.39;63.69
61488;BME280;47351;53.326;-6.298;2023-05-19T09:06:19;102785.85;;;15.43;64.13
61488;BME280;47351;53.326;-6.298;2023-05-19T09:09:29;102789.08;;;15.52;64.29
61488;BME280;47351;53.326;-6.298;2023-05-19T09:12:20;102784.40;;;15.64;64.01
61488;BME280;47351;53.326;-6.298;2023-05-19T09:15:11;102779.20;;;15.76;63.74
61488;BME280;47351;53.326;-6.298;2023-05-19T09:18:08;102776.02;;;15.85;63.63
61488;BME280;47351;53.326;-6.298;2023-05-19T09:21:01;102773.80;;;15.90;63.12
61488;BME280;47351;53.326;-6.298;2023-05-19T09:23:55;102768.70;;;15.88;63.10
61488;BME280;47351;53.326;-6.298;2023-05-19T09:26:49;102764.16;;;15.93;63.23
61488;BME280;47351;53.326;-6.298;2023-05-19T09:29:40;102758.35;;;16.05;63.14
61488;BME280;47351;53.326;-6.298;2023-05-19T09:32:30;102755.30;;;16.10;62.65
61488;BME280;47351;53.326;-6.298;2023-05-19T09:35:21;102757.27;;;16.18;62.67
61488;BME280;47351;53.326;-6.298;2023-05-19T09:38:14;102758.95;;;16.19;62.20
61488;BME280;47351;53.326;-6.298;2023-05-19T09:41:13;102762.02;;;16.25;62.19
61488;BME280;47351;53.326;-6.298;2023-05-19T09:44:14;102756.80;;;16.29;61.96
61488;BME280;47351;53.326;-6.298;2023-05-19T09:47:10;102752.52;;;16.36;62.10
61488;BME280;47351;53.326;-6.298;2023-05-19T09:50:01;102751.31;;;16.50;61.81
61488;BME280;47351;53.326;-6.298;2023-05-19T09:52:52;102760.45;;;16.68;61.62
61488;BME280;47351;53.326;-6.298;2023-05-19T09:55:43;102766.83;;;16.86;61.32
61488;BME280;47351;53.326;-6.298;2023-05-19T09:58:35;102767.34;;;16.99;60.79
61488;BME280;47351;53.326;-6.298;2023-05-19T10:01:27;102766.36;;;17.11;60.52
61488;BME280;47351;53.326;-6.298;2023-05-19T10:04:18;102765.98;;;17.26;60.07
61488;BME280;47351;53.326;-6.298;2023-05-19T10:07:10;102769.48;;;17.34;59.11
61488;BME280;47351;53.326;-6.298;2023-05-19T10:10:02;102765.96;;;17.42;59.44
61488;BME280;47351;53.326;-6.298;2023-05-19T10:12:55;102762.92;;;17.54;59.40
61488;BME280;47351;53.326;-6.298;2023-05-19T10:15:49;102763.08;;;17.64;58.98
61488;BME280;47351;53.326;-6.298;2023-05-19T10:18:42;102762.07;;;17.81;59.04
61488;BME280;47351;53.326;-6.298;2023-05-19T10:21:33;102760.34;;;17.91;58.15
61488;BME280;47351;53.326;-6.298;2023-05-19T10:24:24;102759.57;;;17.97;57.93
61488;BME280;47351;53.326;-6.298;2023-05-19T10:27:15;102757.81;;;18.14;57.82
61488;BME280;47351;53.326;-6.298;2023-05-19T10:30:09;102767.52;;;18.47;57.52
61488;BME280;47351;53.326;-6.298;2023-05-19T10:33:05;102770.19;;;18.72;56.63
61488;BME280;47351;53.326;-6.298;2023-05-19T10:36:04;102764.29;;;18.92;56.21
61488;BME280;47351;53.326;-6.298;2023-05-19T10:39:01;102763.31;;;19.05;55.33
61488;BME280;47351;53.326;-6.298;2023-05-19T10:42:00;102764.88;;;19.04;54.90
61488;BME280;47351;53.326;-6.298;2023-05-19T10:47:59;102759.70;;;18.91;54.66
61488;BME280;47351;53.326;-6.298;2023-05-19T10:50:52;102759.89;;;18.79;54.55
61488;BME280;47351;53.326;-6.298;2023-05-19T10:53:43;102762.83;;;18.72;54.64
61488;BME280;47351;53.326;-6.298;2023-05-19T10:56:35;102761.61;;;18.73;55.00
61488;BME280;47351;53.326;-6.298;2023-05-19T10:59:31;102766.27;;;18.72;54.58
61488;BME280;47351;53.326;-6.298;2023-05-19T11:05:35;102764.02;;;18.69;54.48
61488;BME280;47351;53.326;-6.298;2023-05-19T11:08:32;102764.73;;;18.75;54.48
61488;BME280;47351;53.326;-6.298;2023-05-19T11:11:22;102765.90;;;18.79;54.23
61488;BME280;47351;53.326;-6.298;2023-05-19T11:14:14;102765.46;;;18.81;53.93
61488;BME280;47351;53.326;-6.298;2023-05-19T11:17:06;102765.94;;;18.88;53.80
61488;BME280;47351;53.326;-6.298;2023-05-19T11:20:02;102769.55;;;18.97;53.66
61488;BME280;47351;53.326;-6.298;2023-05-19T11:23:07;102767.45;;;19.00;53.33
61488;BME280;47351;53.326;-6.298;2023-05-19T11:25:59;102769.14;;;19.10;53.43
61488;BME280;47351;53.326;-6.298;2023-05-19T11:28:51;102772.31;;;19.22;52.94
61488;BME280;47351;53.326;-6.298;2023-05-19T11:31:42;102775.21;;;19.17;52.68
61488;BME280;47351;53.326;-6.298;2023-05-19T11:34:35;102774.96;;;18.96;52.75
61488;BME280;47351;53.326;-6.298;2023-05-19T11:37:27;102779.26;;;18.70;52.68
61488;BME280;47351;53.326;-6.298;2023-05-19T11:40:21;102776.65;;;18.48;52.89
61488;BME280;47351;53.326;-6.298;2023-05-19T11:43:12;102775.17;;;18.38;53.32
61488;BME280;47351;53.326;-6.298;2023-05-19T11:46:03;102772.31;;;18.31;53.14
61488;BME280;47351;53.326;-6.298;2023-05-19T11:48:54;102768.60;;;18.25;53.35
61488;BME280;47351;53.326;-6.298;2023-05-19T11:51:44;102766.60;;;18.22;53.13
61488;BME280;47351;53.326;-6.298;2023-05-19T11:54:35;102767.47;;;18.20;52.95
61488;BME280;47351;53.326;-6.298;2023-05-19T11:57:27;102766.73;;;18.17;53.17
61488;BME280;47351;53.326;-6.298;2023-05-19T12:00:18;102764.89;;;18.05;53.18
61488;BME280;47351;53.326;-6.298;2023-05-19T12:03:11;102768.34;;;18.05;53.32
61488;BME280;47351;53.326;-6.298;2023-05-19T12:06:03;102764.53;;;18.16;53.13
61488;BME280;47351;53.326;-6.298;2023-05-19T12:08:56;102763.64;;;18.40;52.88
61488;BME280;47351;53.326;-6.298;2023-05-19T12:11:48;102767.63;;;18.60;52.37
61488;BME280;47351;53.326;-6.298;2023-05-19T12:14:38;102765.35;;;18.70;52.06
61488;BME280;47351;53.326;-6.298;2023-05-19T12:17:30;102762.17;;;18.76;52.24
61488;BME280;47351;53.326;-6.298;2023-05-19T12:20:21;102764.43;;;18.86;52.17
61488;BME280;47351;53.326;-6.298;2023-05-19T12:23:12;102762.09;;;19.13;52.17
61488;BME280;47351;53.326;-6.298;2023-05-19T12:26:03;102761.78;;;19.51;51.40
61488;BME280;47351;53.326;-6.298;2023-05-19T12:28:54;102750.86;;;19.99;50.64
61488;BME280;47351;53.326;-6.298;2023-05-19T12:31:47;102744.81;;;20.55;49.46
61488;BME280;47351;53.326;-6.298;2023-05-19T12:34:39;102741.77;;;20.97;48.14
61488;BME280;47351;53.326;-6.298;2023-05-19T12:37:30;102744.81;;;21.21;47.57
61488;BME280;47351;53.326;-6.298;2023-05-19T12:40:20;102747.89;;;21.45;46.91
61488;BME280;47351;53.326;-6.298;2023-05-19T12:43:19;102745.17;;;21.63;45.45
61488;BME280;47351;53.326;-6.298;2023-05-19T12:46:10;102752.67;;;21.49;45.80
61488;BME280;47351;53.326;-6.298;2023-05-19T12:49:00;102752.98;;;21.45;46.00
61488;BME280;47351;53.326;-6.298;2023-05-19T12:51:52;102750.51;;;21.56;45.96
61488;BME280;47351;53.326;-6.298;2023-05-19T12:54:42;102750.45;;;21.64;45.21
61488;BME280;47351;53.326;-6.298;2023-05-19T12:57:34;102748.64;;;21.58;44.48
61488;BME280;47351;53.326;-6.298;2023-05-19T13:00:24;102749.31;;;21.92;44.40
61488;BME280;47351;53.326;-6.298;2023-05-19T13:03:17;102746.64;;;22.34;44.01
61488;BME280;47351;53.326;-6.298;2023-05-19T13:06:09;102748.31;;;22.75;43.65
61488;BME280;47351;53.326;-6.298;2023-05-19T13:09:00;102745.49;;;23.16;43.13
61488;BME280;47351;53.326;-6.298;2023-05-19T13:11:50;102747.97;;;23.38;42.37
61488;BME280;47351;53.326;-6.298;2023-05-19T13:14:42;102751.09;;;23.34;42.20
61488;BME280;47351;53.326;-6.298;2023-05-19T13:17:32;102749.17;;;23.04;41.81
61488;BME280;47351;53.326;-6.298;2023-05-19T13:20:25;102748.17;;;22.70;41.78
61488;BME280;47351;53.326;-6.298;2023-05-19T13:23:16;102745.56;;;22.30;41.62
61488;BME280;47351;53.326;-6.298;2023-05-19T13:26:07;102742.92;;;22.44;41.79
61488;BME280;47351;53.326;-6.298;2023-05-19T13:28:59;102741.38;;;23.28;41.36
61488;BME280;47351;53.326;-6.298;2023-05-19T13:31:50;102729.60;;;23.99;40.70
61488;BME280;47351;53.326;-6.298;2023-05-19T13:34:41;102726.94;;;24.77;39.69
61488;BME280;47351;53.326;-6.298;2023-05-19T13:37:31;102720.30;;;25.62;37.60
61488;BME280;47351;53.326;-6.298;2023-05-19T13:40:22;102716.67;;;26.28;36.92
61488;BME280;47351;53.326;-6.298;2023-05-19T13:43:14;102719.83;;;26.96;36.25
61488;BME280;47351;53.326;-6.298;2023-05-19T13:46:05;102720.85;;;27.00;36.16
61488;BME280;47351;53.326;-6.298;2023-05-19T13:48:56;102722.83;;;26.90;36.20
61488;BME280;47351;53.326;-6.298;2023-05-19T13:51:46;102722.02;;;26.72;35.73
61488;BME280;47351;53.326;-6.298;2023-05-19T13:54:38;102718.92;;;26.43;34.97
61488;BME280;47351;53.326;-6.298;2023-05-19T13:57:28;102720.89;;;26.04;35.73
61488;BME280;47351;53.326;-6.298;2023-05-19T14:00:19;102720.27;;;25.63;36.48
61488;BME280;47351;53.326;-6.298;2023-05-19T14:03:10;102719.42;;;25.22;36.80
61488;BME280;47351;53.326;-6.298;2023-05-19T14:06:01;102722.50;;;24.81;36.88
61488;BME280;47351;53.326;-6.298;2023-05-19T14:08:52;102719.67;;;24.28;37.22
61488;BME280;47351;53.326;-6.298;2023-05-19T14:11:43;102721.66;;;23.86;37.74
61488;BME280;47351;53.326;-6.298;2023-05-19T14:14:33;102726.84;;;23.43;37.97
61488;BME280;47351;53.326;-6.298;2023-05-19T14:17:25;102726.23;;;23.23;38.61
61488;BME280;47351;53.326;-6.298;2023-05-19T14:20:16;102723.54;;;23.30;38.74
61488;BME280;47351;53.326;-6.298;2023-05-19T14:23:07;102723.04;;;23.22;38.48
61488;BME280;47351;53.326;-6.298;2023-05-19T14:25:57;102721.88;;;23.24;38.51
61488;BME280;47351;53.326;-6.298;2023-05-19T14:28:48;102718.79;;;23.45;38.39
61488;BME280;47351;53.326;-6.298;2023-05-19T14:31:39;102721.09;;;23.83;38.25
61488;BME280;47351;53.326;-6.298;2023-05-19T14:34:30;102719.38;;;24.04;37.72
61488;BME280;47351;53.326;-6.298;2023-05-19T14:37:21;102711.65;;;24.39;37.56
61488;BME280;47351;53.326;-6.298;2023-05-19T14:40:12;102712.46;;;24.88;37.01
61488;BME280;47351;53.326;-6.298;2023-05-19T14:43:03;102712.93;;;24.93;36.52
61488;BME280;47351;53.326;-6.298;2023-05-19T14:45:53;102710.98;;;24.54;36.41
61488;BME280;47351;53.326;-6.298;2023-05-19T14:48:44;102706.78;;;24.11;36.95
61488;BME280;47351;53.326;-6.298;2023-05-19T14:51:35;102707.08;;;23.87;37.43
61488;BME280;47351;53.326;-6.298;2023-05-19T14:54:26;102704.02;;;23.84;37.94
61488;BME280;47351;53.326;-6.298;2023-05-19T14:57:16;102703.41;;;23.83;38.09
61488;BME280;47351;53.326;-6.298;2023-05-19T15:00:08;102702.20;;;23.70;38.28
61488;BME280;47351;53.326;-6.298;2023-05-19T15:02:59;102707.04;;;23.49;38.53
61488;BME280;47351;53.326;-6.298;2023-05-19T15:05:50;102713.36;;;23.34;38.50
61488;BME280;47351;53.326;-6.298;2023-05-19T15:08:40;102712.94;;;23.07;38.14
61488;BME280;47351;53.326;-6.298;2023-05-19T15:11:31;102707.71;;;22.83;38.74
61488;BME280;47351;53.326;-6.298;2023-05-19T15:14:22;102706.88;;;22.74;38.79
61488;BME280;47351;53.326;-6.298;2023-05-19T15:17:15;102708.52;;;22.56;38.64
61488;BME280;47351;53.326;-6.298;2023-05-19T15:20:07;102707.82;;;22.38;38.67
61488;BME280;47351;53.326;-6.298;2023-05-19T15:22:58;102705.77;;;22.30;38.77